createdAt,value
2022-11-28T00:01:39.215Z,980
2022-11-28T00:16:15.643Z,979.9
2022-11-28T00:30:48.667Z,979.8
2022-11-28T00:45:20.872Z,979.4
2022-11-28T00:59:53.733Z,979.5
2022-11-28T01:14:20.471Z,979.3
2022-11-28T01:28:51.119Z,979.1
2022-11-28T01:43:27.037Z,979.1
2022-11-28T01:58:01.203Z,979
2022-11-28T02:12:28.646Z,978.7
2022-11-28T02:26:58.262Z,978.7
2022-11-28T02:41:27.810Z,978.4
2022-11-28T02:55:57.917Z,978.3
2022-11-28T03:10:28.103Z,978.1
2022-11-28T03:24:58.574Z,978
2022-11-28T03:39:29.131Z,977.9
2022-11-28T03:53:59.297Z,978.1
2022-11-28T04:08:29.304Z,978.1
2022-11-28T04:22:58.406Z,978
2022-11-28T04:37:29.096Z,978
2022-11-28T04:51:59.677Z,978.1
2022-11-28T05:06:30.745Z,978
2022-11-28T05:21:01.340Z,978.2
2022-11-28T05:35:28.569Z,978.2
2022-11-28T05:49:57.380Z,978
2022-11-28T06:04:28.394Z,977.9
2022-11-28T06:18:58.007Z,977.9
2022-11-28T06:33:27.938Z,977.8
2022-11-28T06:47:57.949Z,977.8
2022-11-28T07:02:29.430Z,978
2022-11-28T07:16:59.158Z,978
2022-11-28T07:31:35.725Z,977.9
2022-11-28T07:46:08.978Z,977.9
2022-11-28T08:00:37.627Z,977.9
2022-11-28T08:15:08.421Z,977.9
2022-11-28T08:29:39.722Z,977.9
2022-11-28T08:44:09.886Z,978
2022-11-28T08:58:38.397Z,977.9
2022-11-28T09:13:08.727Z,978
2022-11-28T09:27:39.140Z,977.8
2022-11-28T09:42:09.675Z,977.8
2022-11-28T09:56:40.619Z,978
2022-11-28T10:11:17.675Z,978
2022-11-28T10:25:50.717Z,977.9
2022-11-28T10:40:17.326Z,978
2022-11-28T10:54:54.151Z,977.9
2022-11-28T11:09:20.652Z,978
2022-11-28T11:23:56.165Z,978
2022-11-28T11:38:22.243Z,977.9
2022-11-28T11:52:53.179Z,978
2022-11-28T12:07:23.599Z,977.9
2022-11-28T12:21:53.712Z,978
2022-11-28T12:36:28.246Z,977.9
2022-11-28T12:51:01.574Z,977.8
2022-11-28T13:05:29.377Z,977.8
2022-11-28T13:20:00.401Z,977.7
2022-11-28T13:34:37.140Z,977.6
2022-11-28T13:49:21.744Z,977.7
2022-11-28T14:03:40.718Z,977.7
2022-11-28T14:18:58.081Z,977.8
2022-11-28T14:33:08.519Z,977.8
2022-11-28T14:47:38.649Z,978
2022-11-28T15:02:09.627Z,978
2022-11-28T15:16:51.010Z,978.1
2022-11-28T15:31:15.140Z,978
2022-11-28T15:45:46.912Z,978.1
2022-11-28T16:00:18.980Z,978.2
2022-11-28T16:14:48.564Z,978.4
2022-11-28T16:29:19.717Z,978.4
2022-11-28T16:43:50.671Z,978.5
2022-11-28T16:58:21.198Z,978.5
2022-11-28T17:12:54.381Z,978.6
2022-11-28T17:27:22.923Z,978.7
2022-11-28T17:41:52.124Z,978.8
2022-11-28T17:56:22.926Z,978.8
2022-11-28T18:10:53.379Z,978.7
2022-11-28T18:25:24.464Z,978.9
2022-11-28T18:39:54.702Z,979
2022-11-28T18:54:30.238Z,979.1
2022-11-28T19:09:04.121Z,979.2
2022-11-28T19:23:28.823Z,979.2
2022-11-28T19:38:00.153Z,979.1
2022-11-28T19:52:30.955Z,979.2
2022-11-28T20:07:01.257Z,979.4
2022-11-28T20:21:31.499Z,979.5
2022-11-28T20:36:02.207Z,979.5
2022-11-28T20:50:33.124Z,979.6
2022-11-28T21:05:03.146Z,979.7
2022-11-28T21:19:39.371Z,979.7
2022-11-28T21:34:03.472Z,979.7
2022-11-28T21:48:30.908Z,979.8
2022-11-28T22:03:32.855Z,979.8
2022-11-28T22:17:48.301Z,979.9
2022-11-28T22:32:17.557Z,980
2022-11-28T22:46:46.239Z,980
2022-11-28T23:01:22.637Z,980
2022-11-28T23:15:55.473Z,980.1
2022-11-28T23:30:23.755Z,980.1
2022-11-28T23:44:53.534Z,980.1
2022-11-28T23:59:30.282Z,980.1
